Ana Sayfa
METAR-TAF:

METAR-TAF

Havaalanları :

Kars Harakani Havalimanı

Kars, Türkiye

Enlem: 40-36N, Boylam: 043-05E, yükseklik: 1775 m

Güncel hava durumu gözlemi

Rapor saat 07:50 UTC de 1 saat ve 3 dakika önce yapıldı.
Rüzgar batı/kuzeybatıdan 4 kt, batı/güneybatı ve kuzeybatı arasında değişken
Sıcaklık 0°C
Nem 69%
Basınç 1024 hPa
Görüş mesafesi 10 km veya daha fazla
1500 m altında bulut yok ve kümülonimbus yok

METAR: LTCF 190750Z 29004KT 250V320 CAVOK M00/M05 Q1024

Saat: 11:53 (08:53 UTC)

Tahmin

Rapor saat 07:40 UTC de 1 saat ve 13 dakika önce yapıldı.
Ayın 19'si saat 09 UTC'den ayın 19'si saat 18 UTC'ye kadar geçerli Tahmin
Rüzgar değişken yönden 2 kt
Görüş mesafesi 10 km veya daha fazla
1500 m altında bulut yok ve kümülonimbus yok

TAF: LTCF 190740Z 1909/1918 VRB02KT CAVOK

4.000'den fazla havaalanı için hava durumu gözlemleri ve tahminleri (METAR ve TAF raporları).

Kullanılabilir istasyonlar harita üzerinde sarı ve kırmızı noktalarla gösterilir.

İstasyonun adını görmek için fareyi noktanın üzerinde gezdirin.

Sonrasında hava gözlem ve tahminlerini görmek için tıklayın.

Haritayı değiştirmek için: yaklaştırmak için siyah artı işaretli yeşil düğmeye ve uzaklaştırmak için de eksi işaretli düğmeye hızla tıklayın; bitişik haritalar için yeşil okları kullanın.


METAR-TAF: